Louisburg, Missouri
Current Conditions -  °F | °C
As of 8:35 AM on Saturday 22 Nov 2014 (Local Time) from KH21 Reporting Station
Overcast Overcast  
Wind Chill: 52°   Ceiling: 2000
Heat Index: 52°   Visibility: 10mi
Dew Point: 46°   Wind: 9mph
Humidity: 82%   Direction: 170°S
Pressure: 30.07"   Gusts: NA
Location:  37.76°N, 93.14°W
Report Text: KH21 221435Z AUTO 17008KT 10SM BKN020 OVC026 11/08 A3007 RMK AO2
Loading
Personal Weather Stations






























Interactive Weather Map New forecast layout! Learn more

10-Day Weather Forecast

Advertisements
Track Severe Weather on mobile